createdAt,value
2018-04-24T00:01:52.660Z,3.50
2018-04-24T00:04:22.132Z,3.40
2018-04-24T00:06:50.647Z,2.97
2018-04-24T00:09:18.994Z,3.53
2018-04-24T00:11:48.149Z,3.13
2018-04-24T00:14:16.725Z,3.47
2018-04-24T00:16:45.091Z,3.60
2018-04-24T00:19:13.592Z,3.10
2018-04-24T00:21:42.359Z,3.00
2018-04-24T00:24:11.038Z,2.37
2018-04-24T00:26:39.421Z,2.93
2018-04-24T00:29:07.771Z,3.00
2018-04-24T00:31:36.152Z,3.07
2018-04-24T00:34:04.679Z,3.07
2018-04-24T00:36:33.142Z,3.17
2018-04-24T00:39:02.095Z,3.00
2018-04-24T00:41:30.519Z,3.10
2018-04-24T00:43:59.800Z,2.83
2018-04-24T00:46:28.225Z,2.43
2018-04-24T00:48:56.857Z,2.90
2018-04-24T00:51:25.472Z,2.67
2018-04-24T00:53:54.374Z,2.43
2018-04-24T00:56:23.741Z,2.90
2018-04-24T00:58:52.191Z,2.50
2018-04-24T01:01:20.951Z,2.53
2018-04-24T01:03:50.219Z,2.07
2018-04-24T01:06:18.696Z,2.70
2018-04-24T01:08:47.185Z,2.40
2018-04-24T01:11:15.570Z,2.67
2018-04-24T01:13:43.907Z,2.10
2018-04-24T01:16:12.255Z,2.40
2018-04-24T01:18:40.604Z,2.20
2018-04-24T01:21:09.112Z,2.27
2018-04-24T01:23:37.556Z,2.63
2018-04-24T01:26:06.259Z,2.37
2018-04-24T01:28:34.750Z,2.20
2018-04-24T01:31:03.151Z,2.37
2018-04-24T01:33:32.414Z,1.90
2018-04-24T01:36:00.759Z,1.60
2018-04-24T01:38:29.419Z,2.13
2018-04-24T01:40:58.238Z,1.93
2018-04-24T01:43:26.591Z,1.77
2018-04-24T01:45:55.093Z,1.80
2018-04-24T01:48:24.555Z,1.60
2018-04-24T01:50:53.596Z,1.30
2018-04-24T01:53:22.562Z,1.90
2018-04-24T01:55:51.119Z,1.67
2018-04-24T01:58:19.547Z,1.90
2018-04-24T02:00:48.129Z,1.57
2018-04-24T02:03:16.504Z,1.63
2018-04-24T02:05:44.839Z,1.97
2018-04-24T02:08:13.450Z,1.60
2018-04-24T02:10:42.207Z,2.03
2018-04-24T02:13:10.539Z,1.93
2018-04-24T02:15:38.912Z,1.53
2018-04-24T02:18:07.263Z,1.73
2018-04-24T02:20:36.018Z,1.73
2018-04-24T02:23:04.642Z,1.53
2018-04-24T02:25:33.085Z,1.67
2018-04-24T02:28:01.993Z,1.20
2018-04-24T02:30:30.811Z,2.03
2018-04-24T02:32:59.336Z,1.47
2018-04-24T02:35:27.691Z,1.53
2018-04-24T02:37:56.036Z,1.87
2018-04-24T02:40:24.973Z,1.90
2018-04-24T02:42:54.069Z,1.73
2018-04-24T02:45:22.941Z,1.47
2018-04-24T02:47:51.509Z,2.20
2018-04-24T02:50:20.536Z,1.53
2018-04-24T02:52:48.918Z,1.80
2018-04-24T02:55:17.256Z,1.50
2018-04-24T02:57:45.600Z,1.77
2018-04-24T03:00:13.948Z,1.53
2018-04-24T03:02:42.287Z,1.47
2018-04-24T03:05:11.093Z,1.60
2018-04-24T03:07:39.687Z,1.90
2018-04-24T03:10:08.202Z,1.60
2018-04-24T03:12:36.578Z,1.60
2018-04-24T03:15:05.061Z,1.40
2018-04-24T03:17:33.432Z,1.67
2018-04-24T03:20:02.347Z,1.77
2018-04-24T03:22:30.741Z,1.50
2018-04-24T03:24:59.142Z,1.37
2018-04-24T03:27:27.649Z,1.53
2018-04-24T03:29:56.139Z,2.10
2018-04-24T03:32:24.685Z,1.50
2018-04-24T03:34:53.201Z,1.90
2018-04-24T03:37:21.701Z,1.70
2018-04-24T03:39:50.095Z,1.50
2018-04-24T03:42:18.686Z,1.40
2018-04-24T03:44:47.232Z,1.67
2018-04-24T03:47:15.916Z,1.47
2018-04-24T03:49:44.348Z,1.43
2018-04-24T03:52:12.697Z,1.73
2018-04-24T03:54:41.371Z,1.80
2018-04-24T03:57:09.792Z,1.40
2018-04-24T03:59:39.079Z,2.03
2018-04-24T04:02:07.605Z,1.30
2018-04-24T04:04:36.249Z,1.40
2018-04-24T04:07:05.022Z,1.80
2018-04-24T04:09:33.741Z,1.40
2018-04-24T04:12:03.323Z,1.70
2018-04-24T04:14:33.567Z,1.30
2018-04-24T04:17:14.509Z,1.50
2018-04-24T04:19:54.923Z,1.30
2018-04-24T04:22:35.346Z,1.50
2018-04-24T04:25:04.097Z,1.40
2018-04-24T04:27:33.421Z,1.17
2018-04-24T04:30:02.047Z,1.40
2018-04-24T04:32:30.492Z,1.20
2018-04-24T04:34:59.421Z,1.40
2018-04-24T04:37:27.920Z,1.57
2018-04-24T04:39:56.292Z,1.20
2018-04-24T04:42:24.915Z,1.03
2018-04-24T04:44:53.664Z,1.47
2018-04-24T04:47:22.428Z,1.10
2018-04-24T04:49:51.243Z,1.17
2018-04-24T04:52:19.981Z,1.40
2018-04-24T04:54:48.659Z,1.23
2018-04-24T04:57:17.687Z,1.60
2018-04-24T04:59:46.108Z,2.33
2018-04-24T05:02:14.694Z,2.00
2018-04-24T05:04:43.044Z,2.00
2018-04-24T05:07:11.403Z,1.73
2018-04-24T05:09:39.934Z,1.57
2018-04-24T05:12:08.303Z,3.13
2018-04-24T05:14:37.794Z,2.00
2018-04-24T05:17:06.223Z,1.40
2018-04-24T05:19:34.628Z,1.53
2018-04-24T05:22:03.064Z,1.77
2018-04-24T05:24:31.491Z,1.53
2018-04-24T05:27:00.144Z,2.20
2018-04-24T05:29:28.516Z,1.50
2018-04-24T05:31:56.992Z,2.10
2018-04-24T05:34:25.412Z,3.50
2018-04-24T05:36:54.363Z,4.27
2018-04-24T05:39:22.712Z,1.60
2018-04-24T05:41:51.543Z,1.60
2018-04-24T05:44:20.391Z,1.70
2018-04-24T05:46:50.380Z,1.50
2018-04-24T05:49:18.800Z,1.57
2018-04-24T05:51:47.144Z,1.60
2018-04-24T05:54:15.502Z,1.40
2018-04-24T05:56:44.484Z,1.07
2018-04-24T05:59:13.465Z,1.30
2018-04-24T06:01:41.821Z,1.60
2018-04-24T06:04:11.274Z,1.53
2018-04-24T06:06:39.950Z,1.47
2018-04-24T06:09:08.803Z,1.63
2018-04-24T06:11:37.936Z,1.60
2018-04-24T06:14:06.379Z,1.87
2018-04-24T06:16:34.912Z,3.10
2018-04-24T06:19:03.425Z,3.50
2018-04-24T06:21:31.877Z,1.27
2018-04-24T06:24:00.455Z,1.20
2018-04-24T06:26:28.877Z,1.17
2018-04-24T06:28:58.529Z,1.17
2018-04-24T06:31:26.893Z,1.20
2018-04-24T06:33:56.260Z,1.33
2018-04-24T06:36:24.683Z,1.40
2018-04-24T06:38:53.376Z,1.70
2018-04-24T06:41:22.038Z,0.80
2018-04-24T06:43:51.799Z,1.60
2018-04-24T06:46:20.145Z,1.10
2018-04-24T06:48:48.824Z,1.30
2018-04-24T06:51:18.149Z,1.30
2018-04-24T06:53:47.000Z,1.03
2018-04-24T06:56:15.361Z,1.40
2018-04-24T06:58:44.735Z,1.00
2018-04-24T07:01:13.201Z,0.83
2018-04-24T07:03:42.291Z,1.90
2018-04-24T07:06:11.333Z,0.97
2018-04-24T07:08:39.787Z,1.20
2018-04-24T07:11:08.875Z,1.37
2018-04-24T07:13:37.533Z,1.27
2018-04-24T07:16:06.851Z,1.23
2018-04-24T07:18:36.082Z,1.33
2018-04-24T07:21:04.432Z,1.40
2018-04-24T07:23:33.515Z,1.20
2018-04-24T07:26:01.955Z,1.30
2018-04-24T07:28:30.850Z,1.20
2018-04-24T07:30:59.671Z,1.20
2018-04-24T07:33:28.149Z,1.20
2018-04-24T07:35:56.631Z,1.10
2018-04-24T07:38:25.221Z,0.90
2018-04-24T07:40:54.449Z,1.30
2018-04-24T07:43:22.855Z,1.37
2018-04-24T07:45:51.267Z,0.70
2018-04-24T07:48:19.908Z,1.23
2018-04-24T07:50:48.316Z,1.57
2018-04-24T07:53:16.769Z,1.10
2018-04-24T07:55:45.799Z,0.90
2018-04-24T07:58:14.191Z,1.50
2018-04-24T08:00:42.628Z,1.50
2018-04-24T08:03:11.313Z,1.30
2018-04-24T08:05:39.668Z,1.17
2018-04-24T08:08:08.060Z,4.57
2018-04-24T08:10:36.453Z,1.47
2018-04-24T08:13:04.802Z,1.80
2018-04-24T08:15:33.185Z,1.17
2018-04-24T08:18:01.637Z,1.17
2018-04-24T08:20:30.012Z,1.10
2018-04-24T08:22:58.410Z,1.30
2018-04-24T08:25:26.890Z,1.30
2018-04-24T08:27:55.236Z,1.00
2018-04-24T08:30:24.952Z,1.10
2018-04-24T08:32:54.415Z,1.83
2018-04-24T08:35:23.185Z,1.10
2018-04-24T08:37:52.066Z,1.03
2018-04-24T08:40:20.469Z,1.27
2018-04-24T08:42:48.845Z,1.30
2018-04-24T08:45:17.585Z,1.40
2018-04-24T08:47:47.996Z,1.10
2018-04-24T08:50:16.966Z,0.97
2018-04-24T08:52:45.343Z,1.20
2018-04-24T08:55:13.766Z,1.00
2018-04-24T08:57:42.095Z,1.33
2018-04-24T09:00:10.450Z,0.90
2018-04-24T09:02:39.055Z,1.30
2018-04-24T09:05:07.413Z,1.17
2018-04-24T09:07:35.752Z,1.40
2018-04-24T09:10:04.119Z,0.97
2018-04-24T09:12:32.474Z,1.50
2018-04-24T09:15:01.109Z,1.00
2018-04-24T09:17:30.189Z,1.30
2018-04-24T09:19:58.749Z,1.10
2018-04-24T09:22:27.712Z,1.20
2018-04-24T09:24:56.118Z,0.73
2018-04-24T09:27:24.788Z,1.40
2018-04-24T09:29:58.857Z,0.97
2018-04-24T09:32:27.449Z,0.93
2018-04-24T09:34:56.495Z,1.20
2018-04-24T09:37:24.855Z,1.00
2018-04-24T09:39:53.546Z,1.20
2018-04-24T09:42:22.525Z,1.23
2018-04-24T09:44:50.990Z,1.27
2018-04-24T09:47:19.433Z,1.30
2018-04-24T09:49:48.675Z,1.17
2018-04-24T09:52:17.087Z,1.47
2018-04-24T09:54:45.435Z,1.37
2018-04-24T09:57:13.813Z,1.00
2018-04-24T09:59:42.241Z,1.30
2018-04-24T10:02:11.179Z,1.50
2018-04-24T10:04:39.488Z,1.60
2018-04-24T10:07:08.299Z,1.90
2018-04-24T10:09:36.974Z,1.87
2018-04-24T10:12:06.371Z,2.00
2018-04-24T10:14:34.813Z,2.23
2018-04-24T10:17:03.604Z,2.20
2018-04-24T10:19:33.078Z,1.90
2018-04-24T10:22:02.304Z,1.73
2018-04-24T10:24:30.712Z,1.73
2018-04-24T10:26:59.430Z,1.80
2018-04-24T10:29:27.817Z,2.33
2018-04-24T10:31:56.578Z,2.20
2018-04-24T10:34:25.309Z,2.67
2018-04-24T10:36:53.927Z,2.33
2018-04-24T10:39:22.283Z,2.40
2018-04-24T10:41:50.640Z,2.20
2018-04-24T10:44:20.487Z,2.00
2018-04-24T10:46:48.849Z,2.37
2018-04-24T10:49:18.368Z,2.30
2018-04-24T10:51:46.808Z,2.43
2018-04-24T10:54:15.962Z,2.70
2018-04-24T10:56:44.370Z,2.27
2018-04-24T10:59:13.208Z,2.63
2018-04-24T11:01:41.568Z,2.73
2018-04-24T11:04:11.171Z,1.90
2018-04-24T11:06:40.503Z,2.20
2018-04-24T11:09:09.101Z,2.50
2018-04-24T11:11:37.463Z,2.27
2018-04-24T11:14:06.145Z,2.37
2018-04-24T11:16:34.962Z,2.30
2018-04-24T11:19:03.579Z,2.40
2018-04-24T11:21:32.097Z,2.50
2018-04-24T11:24:00.452Z,2.20
2018-04-24T11:26:29.122Z,3.27
2018-04-24T11:28:57.485Z,2.60
2018-04-24T11:31:25.835Z,3.17
2018-04-24T11:33:54.190Z,2.80
2018-04-24T11:36:22.970Z,2.67
2018-04-24T11:38:51.441Z,3.00
2018-04-24T11:41:20.140Z,2.43
2018-04-24T11:43:49.225Z,2.47
2018-04-24T11:46:17.551Z,2.03
2018-04-24T11:48:45.943Z,3.13
2018-04-24T11:51:14.920Z,2.90
2018-04-24T11:53:43.380Z,2.80
2018-04-24T11:56:12.004Z,2.67
2018-04-24T11:58:40.354Z,2.70
2018-04-24T12:01:09.427Z,2.40
2018-04-24T12:03:38.513Z,2.40
2018-04-24T12:06:07.321Z,3.43
2018-04-24T12:08:36.065Z,2.23
2018-04-24T12:11:04.721Z,2.57
2018-04-24T12:13:34.610Z,2.83
2018-04-24T12:16:03.293Z,2.70
2018-04-24T12:18:31.793Z,3.63
2018-04-24T12:21:00.218Z,3.10
2018-04-24T12:23:29.000Z,2.43
2018-04-24T12:25:58.423Z,6.50
2018-04-24T12:28:26.794Z,5.70
2018-04-24T12:30:55.526Z,2.37
2018-04-24T12:33:24.507Z,6.03
2018-04-24T12:35:53.260Z,2.67
2018-04-24T12:38:21.838Z,2.77
2018-04-24T12:40:50.341Z,3.03
2018-04-24T12:43:26.825Z,2.20
2018-04-24T12:45:56.060Z,2.57
2018-04-24T12:48:24.412Z,2.60
2018-04-24T12:50:52.905Z,2.40
2018-04-24T12:53:21.298Z,2.90
2018-04-24T12:55:49.912Z,2.70
2018-04-24T12:58:18.365Z,2.90
2018-04-24T13:00:48.479Z,3.27
2018-04-24T13:03:17.202Z,2.60
2018-04-24T13:05:45.957Z,2.63
2018-04-24T13:08:14.766Z,3.07
2018-04-24T13:10:43.221Z,2.93
2018-04-24T13:13:11.693Z,2.87
2018-04-24T13:15:40.122Z,3.40
2018-04-24T13:18:08.648Z,3.40
2018-04-24T13:20:37.589Z,3.70
2018-04-24T13:23:06.032Z,13.87
2018-04-24T13:25:34.445Z,3.90
2018-04-24T13:28:02.847Z,3.10
2018-04-24T13:30:31.967Z,3.23
2018-04-24T13:33:00.739Z,5.40
2018-04-24T13:35:29.494Z,4.63
2018-04-24T13:37:57.894Z,4.70
2018-04-24T13:40:26.262Z,6.43
2018-04-24T13:42:55.086Z,6.20
2018-04-24T13:45:23.521Z,5.13
2018-04-24T13:47:51.884Z,4.60
2018-04-24T13:50:20.288Z,4.20
2018-04-24T13:52:48.645Z,4.70
2018-04-24T13:55:17.253Z,5.23
2018-04-24T13:57:46.046Z,4.77
2018-04-24T14:00:14.407Z,4.33
2018-04-24T14:02:43.036Z,4.07
2018-04-24T14:05:11.399Z,4.10
2018-04-24T14:07:39.848Z,7.47
2018-04-24T14:10:08.252Z,4.43
2018-04-24T14:12:36.645Z,4.80
2018-04-24T14:15:05.429Z,4.73
2018-04-24T14:17:33.799Z,12.23
2018-04-24T14:20:02.182Z,7.20
2018-04-24T14:22:30.549Z,5.63
2018-04-24T14:24:58.902Z,7.73
2018-04-24T14:27:27.292Z,8.13
2018-04-24T14:29:55.680Z,5.87
2018-04-24T14:32:24.411Z,6.83
2018-04-24T14:34:52.923Z,13.37
2018-04-24T14:37:21.365Z,5.83
2018-04-24T14:39:49.727Z,7.20
2018-04-24T14:42:23.119Z,5.80
2018-04-24T14:44:54.891Z,6.30
2018-04-24T14:47:23.546Z,8.57
2018-04-24T14:49:52.943Z,5.67
2018-04-24T14:52:21.677Z,6.87
2018-04-24T14:54:50.696Z,10.73
2018-04-24T14:57:19.152Z,8.23
2018-04-24T14:59:47.511Z,8.23
2018-04-24T15:02:17.074Z,7.97
2018-04-24T15:04:45.567Z,7.83
2018-04-24T15:07:14.073Z,9.10
2018-04-24T15:09:44.924Z,7.67
2018-04-24T15:12:13.459Z,7.53
2018-04-24T15:14:41.957Z,8.30
2018-04-24T15:17:10.718Z,7.30
2018-04-24T15:19:39.223Z,8.83
2018-04-24T15:22:07.670Z,7.83
2018-04-24T15:24:36.029Z,9.50
2018-04-24T15:27:04.674Z,8.63
2018-04-24T15:29:33.366Z,10.07
2018-04-24T15:32:01.945Z,9.87
2018-04-24T15:34:35.414Z,15.33
2018-04-24T15:37:05.783Z,11.47
2018-04-24T15:39:34.166Z,8.40
2018-04-24T15:42:02.528Z,9.27
2018-04-24T15:44:30.903Z,14.17
2018-04-24T15:46:59.462Z,11.30
2018-04-24T15:49:27.915Z,9.83
2018-04-24T15:51:56.255Z,8.93
2018-04-24T15:54:24.692Z,12.10
2018-04-24T15:56:53.053Z,8.17
2018-04-24T15:59:21.877Z,9.23
2018-04-24T16:01:50.231Z,8.27
2018-04-24T16:04:18.950Z,8.87
2018-04-24T16:06:47.346Z,6.93
2018-04-24T16:09:15.711Z,7.57
2018-04-24T16:11:44.777Z,7.90
2018-04-24T16:14:13.424Z,5.90
2018-04-24T16:16:41.809Z,7.03
2018-04-24T16:19:10.193Z,7.23
2018-04-24T16:21:38.631Z,8.33
2018-04-24T16:24:07.037Z,7.43
2018-04-24T16:26:35.387Z,6.63
2018-04-24T16:29:03.794Z,6.80
2018-04-24T16:31:32.487Z,6.97
2018-04-24T16:34:01.190Z,6.00
2018-04-24T16:36:29.851Z,7.13
2018-04-24T16:38:58.218Z,6.23
2018-04-24T16:41:26.724Z,5.43
2018-04-24T16:43:55.151Z,5.80
2018-04-24T16:46:24.078Z,5.20
2018-04-24T16:48:53.634Z,5.33
2018-04-24T16:51:22.375Z,5.33
2018-04-24T16:53:50.745Z,4.80
2018-04-24T16:56:19.103Z,5.37
2018-04-24T16:58:47.472Z,4.27
2018-04-24T17:01:15.815Z,5.60
2018-04-24T17:03:44.583Z,5.70
2018-04-24T17:06:13.282Z,4.50
2018-04-24T17:08:41.666Z,18.10
2018-04-24T17:11:10.033Z,6.60
2018-04-24T17:13:38.819Z,5.90
2018-04-24T17:16:07.507Z,5.00
2018-04-24T17:18:36.448Z,8.87
2018-04-24T17:21:07.501Z,8.17
2018-04-24T17:23:35.927Z,5.23
2018-04-24T17:26:04.287Z,6.97
2018-04-24T17:28:32.972Z,5.73
2018-04-24T17:31:01.359Z,4.40
2018-04-24T17:33:29.754Z,4.47
2018-04-24T17:35:58.161Z,4.33
2018-04-24T17:38:26.851Z,5.03
2018-04-24T17:40:55.223Z,5.57
2018-04-24T17:43:24.896Z,5.70
2018-04-24T17:45:53.270Z,10.33
2018-04-24T17:48:21.732Z,5.23
2018-04-24T17:50:50.243Z,3.70
2018-04-24T17:53:18.613Z,5.13
2018-04-24T17:55:47.001Z,5.03
2018-04-24T17:58:15.360Z,5.37
2018-04-24T18:00:44.056Z,5.47
2018-04-24T18:03:12.709Z,4.73
2018-04-24T18:05:41.161Z,4.47
2018-04-24T18:08:09.554Z,4.40
2018-04-24T18:10:38.134Z,3.90
2018-04-24T18:13:07.221Z,5.80
2018-04-24T18:15:35.584Z,4.43
2018-04-24T18:18:03.944Z,5.27
2018-04-24T18:20:34.455Z,5.40
2018-04-24T18:23:04.130Z,4.60
2018-04-24T18:25:34.160Z,5.00
2018-04-24T18:28:05.245Z,3.10
2018-04-24T18:30:34.305Z,5.37
2018-04-24T18:33:02.669Z,5.37
2018-04-24T18:35:31.063Z,4.90
2018-04-24T18:37:59.757Z,6.07
2018-04-24T18:40:28.156Z,4.50
2018-04-24T18:42:56.524Z,3.33
2018-04-24T18:45:24.914Z,4.53
2018-04-24T18:47:54.440Z,4.00
2018-04-24T18:50:22.826Z,4.27
2018-04-24T18:55:50.872Z,5.63
2018-04-24T18:58:19.302Z,3.77
2018-04-24T19:00:47.661Z,2.40
2018-04-24T19:03:16.133Z,2.47
2018-04-24T19:05:44.825Z,2.97
2018-04-24T19:08:13.760Z,3.70
2018-04-24T19:10:42.804Z,3.30
2018-04-24T19:13:11.218Z,3.00
2018-04-24T19:15:39.751Z,3.00
2018-04-24T19:18:08.464Z,2.70
2018-04-24T19:20:37.798Z,2.70
2018-04-24T19:23:06.349Z,2.37
2018-04-24T19:25:40.486Z,2.73
2018-04-24T19:28:08.913Z,2.17
2018-04-24T19:30:37.321Z,2.40
2018-04-24T19:33:05.730Z,2.13
2018-04-24T19:35:34.209Z,2.00
2018-04-24T19:38:05.945Z,2.57
2018-04-24T19:43:41.084Z,2.53
2018-04-24T19:46:10.844Z,1.77
2018-04-24T19:48:52.210Z,2.67
2018-04-24T19:51:20.630Z,2.23
2018-04-24T19:53:49.210Z,1.93
2018-04-24T19:56:18.775Z,2.07
2018-04-24T19:58:47.214Z,3.53
2018-04-24T20:01:15.564Z,9.67
2018-04-24T20:03:44.614Z,2.60
2018-04-24T20:06:13.835Z,2.30
2018-04-24T20:08:54.384Z,1.87
2018-04-24T20:11:23.510Z,3.07
2018-04-24T20:13:51.976Z,2.20
2018-04-24T20:16:20.671Z,1.40
2018-04-24T20:18:49.092Z,2.97
2018-04-24T20:21:18.039Z,1.77
2018-04-24T20:23:47.068Z,1.77
2018-04-24T20:26:15.436Z,1.97
2018-04-24T20:28:43.866Z,1.57
2018-04-24T20:31:12.411Z,2.33
2018-04-24T20:33:40.783Z,1.80
2018-04-24T20:36:09.145Z,1.73
2018-04-24T20:38:37.561Z,2.13
2018-04-24T20:41:06.005Z,1.80
2018-04-24T20:43:34.423Z,3.20
2018-04-24T20:46:02.792Z,1.63
2018-04-24T20:48:31.144Z,1.63
2018-04-24T20:50:59.576Z,2.47
2018-04-24T20:53:28.221Z,1.50
2018-04-24T20:55:56.992Z,1.53
2018-04-24T20:58:25.371Z,1.57
2018-04-24T21:00:53.878Z,1.80
2018-04-24T21:03:22.253Z,1.90
2018-04-24T21:05:50.949Z,1.83
2018-04-24T21:08:19.385Z,1.83
2018-04-24T21:10:48.019Z,1.77
2018-04-24T21:13:16.611Z,1.90
2018-04-24T21:15:49.008Z,1.47
2018-04-24T21:18:18.528Z,1.17
2018-04-24T21:20:46.908Z,1.67
2018-04-24T21:23:15.268Z,1.80
2018-04-24T21:25:43.713Z,1.40
2018-04-24T21:28:12.240Z,1.77
2018-04-24T21:30:41.238Z,2.63
2018-04-24T21:33:18.330Z,1.67
2018-04-24T21:35:46.757Z,1.60
2018-04-24T21:38:15.241Z,2.63
2018-04-24T21:43:22.964Z,2.00
2018-04-24T21:45:53.984Z,1.47
2018-04-24T21:48:22.773Z,1.60
2018-04-24T21:50:55.482Z,1.43
2018-04-24T21:53:23.840Z,2.17
2018-04-24T21:55:59.034Z,1.77
2018-04-24T21:58:27.577Z,1.80
2018-04-24T22:00:55.990Z,2.00
2018-04-24T22:03:24.375Z,1.90
2018-04-24T22:05:55.733Z,1.33
2018-04-24T22:08:24.520Z,10.43
2018-04-24T22:10:58.551Z,9.00
2018-04-24T22:13:33.837Z,2.07
2018-04-24T22:16:02.365Z,2.80
2018-04-24T22:18:30.838Z,2.27
2018-04-24T22:21:00.335Z,2.17
2018-04-24T22:23:28.852Z,2.20
2018-04-24T22:25:57.277Z,2.43
2018-04-24T22:28:26.878Z,2.57
2018-04-24T22:30:55.339Z,2.83
2018-04-24T22:33:23.736Z,2.20
2018-04-24T22:35:52.254Z,1.70
2018-04-24T22:38:20.652Z,2.00
2018-04-24T22:40:48.996Z,2.10
2018-04-24T22:43:18.630Z,2.60
2018-04-24T22:45:46.999Z,2.37
2018-04-24T22:48:16.631Z,1.90
2018-04-24T22:50:45.365Z,2.20
2018-04-24T22:53:14.184Z,2.50
2018-04-24T22:55:42.960Z,2.30
2018-04-24T22:58:11.629Z,2.63
2018-04-24T23:00:40.188Z,2.97
2018-04-24T23:03:10.615Z,2.20
2018-04-24T23:05:38.976Z,2.77
2018-04-24T23:08:07.331Z,1.53
2018-04-24T23:10:48.110Z,3.20
2018-04-24T23:13:29.323Z,2.80
2018-04-24T23:16:09.600Z,3.40
2018-04-24T23:18:51.865Z,2.70
2018-04-24T23:21:20.538Z,2.53
2018-04-24T23:23:48.959Z,3.30
2018-04-24T23:26:17.588Z,2.80
2018-04-24T23:28:48.179Z,3.13
2018-04-24T23:31:17.270Z,3.50
2018-04-24T23:33:46.337Z,2.97
2018-04-24T23:36:15.330Z,3.07
2018-04-24T23:38:43.819Z,3.63
2018-04-24T23:41:13.361Z,2.80
2018-04-24T23:43:42.217Z,3.87
2018-04-24T23:46:12.652Z,2.93
2018-04-24T23:48:41.495Z,3.03
2018-04-24T23:51:09.953Z,3.60
2018-04-24T23:53:38.962Z,2.87
2018-04-24T23:56:07.540Z,2.90
2018-04-24T23:58:36.737Z,4.10
